sensor_id;sensor_type;location;lat;lon;timestamp;pressure;altitude;pressure_sealevel;temperature
75658;BMP280;64255;49.892;17.884;2022-11-03T00:01:13;99515.91;;;5.75
75658;BMP280;64255;49.892;17.884;2022-11-03T00:03:40;99515.44;;;5.82
75658;BMP280;64255;49.892;17.884;2022-11-03T00:06:07;99511.44;;;5.84
75658;BMP280;64255;49.892;17.884;2022-11-03T00:08:37;99523.66;;;5.89
75658;BMP280;64255;49.892;17.884;2022-11-03T00:11:04;99522.84;;;5.88
75658;BMP280;64255;49.892;17.884;2022-11-03T00:13:32;99514.34;;;5.91
75658;BMP280;64255;49.892;17.884;2022-11-03T00:15:59;99508.31;;;5.56
75658;BMP280;64255;49.892;17.884;2022-11-03T00:18:27;99511.25;;;5.72
75658;BMP280;64255;49.892;17.884;2022-11-03T00:20:59;99496.22;;;5.55
75658;BMP280;64255;49.892;17.884;2022-11-03T00:23:30;99529.84;;;5.40
75658;BMP280;64255;49.892;17.884;2022-11-03T00:26:16;99525.03;;;5.33
75658;BMP280;64255;49.892;17.884;2022-11-03T00:28:47;99539.91;;;5.56
75658;BMP280;64255;49.892;17.884;2022-11-03T00:33:47;99527.38;;;5.61
75658;BMP280;64255;49.892;17.884;2022-11-03T00:36:23;99541.19;;;5.76
75658;BMP280;64255;49.892;17.884;2022-11-03T00:38:52;99530.47;;;5.55
75658;BMP280;64255;49.892;17.884;2022-11-03T00:41:21;99537.00;;;5.66
75658;BMP280;64255;49.892;17.884;2022-11-03T00:43:50;99530.31;;;5.51
75658;BMP280;64255;49.892;17.884;2022-11-03T00:46:19;99541.00;;;5.55
75658;BMP280;64255;49.892;17.884;2022-11-03T00:48:47;99541.94;;;5.50
75658;BMP280;64255;49.892;17.884;2022-11-03T00:51:22;99517.72;;;5.13
75658;BMP280;64255;49.892;17.884;2022-11-03T00:53:55;99535.25;;;5.17
75658;BMP280;64255;49.892;17.884;2022-11-03T00:56:27;99517.84;;;5.07
75658;BMP280;64255;49.892;17.884;2022-11-03T00:58:56;99537.72;;;5.22
75658;BMP280;64255;49.892;17.884;2022-11-03T01:01:27;99534.97;;;5.45
75658;BMP280;64255;49.892;17.884;2022-11-03T01:03:56;99541.44;;;5.39
75658;BMP280;64255;49.892;17.884;2022-11-03T01:06:23;99536.66;;;5.32
75658;BMP280;64255;49.892;17.884;2022-11-03T01:08:51;99541.75;;;5.29
75658;BMP280;64255;49.892;17.884;2022-11-03T01:11:22;99538.16;;;5.16
75658;BMP280;64255;49.892;17.884;2022-11-03T01:13:50;99532.44;;;5.22
75658;BMP280;64255;49.892;17.884;2022-11-03T01:16:17;99525.16;;;5.11
75658;BMP280;64255;49.892;17.884;2022-11-03T01:18:43;99516.81;;;5.17
75658;BMP280;64255;49.892;17.884;2022-11-03T01:21:11;99534.50;;;5.43
75658;BMP280;64255;49.892;17.884;2022-11-03T01:23:38;99508.28;;;5.38
75658;BMP280;64255;49.892;17.884;2022-11-03T01:26:07;99520.06;;;5.41
75658;BMP280;64255;49.892;17.884;2022-11-03T01:28:35;99522.41;;;5.42
75658;BMP280;64255;49.892;17.884;2022-11-03T01:31:15;99525.38;;;5.32
75658;BMP280;64255;49.892;17.884;2022-11-03T01:33:43;99530.47;;;5.28
75658;BMP280;64255;49.892;17.884;2022-11-03T01:36:13;99526.75;;;5.29
75658;BMP280;64255;49.892;17.884;2022-11-03T01:38:41;99521.31;;;5.26
75658;BMP280;64255;49.892;17.884;2022-11-03T01:41:14;99509.34;;;5.11
75658;BMP280;64255;49.892;17.884;2022-11-03T01:43:42;99518.03;;;5.11
75658;BMP280;64255;49.892;17.884;2022-11-03T01:48:46;99508.88;;;5.00
75658;BMP280;64255;49.892;17.884;2022-11-03T01:51:19;99506.72;;;5.02
75658;BMP280;64255;49.892;17.884;2022-11-03T01:53:51;99518.31;;;5.01
75658;BMP280;64255;49.892;17.884;2022-11-03T01:56:21;99510.56;;;5.04
75658;BMP280;64255;49.892;17.884;2022-11-03T01:58:52;99511.38;;;5.14
75658;BMP280;64255;49.892;17.884;2022-11-03T02:01:20;99496.50;;;5.00
75658;BMP280;64255;49.892;17.884;2022-11-03T02:04:07;99490.16;;;5.10
75658;BMP280;64255;49.892;17.884;2022-11-03T02:06:35;99493.41;;;5.16
75658;BMP280;64255;49.892;17.884;2022-11-03T02:09:06;99498.81;;;5.02
75658;BMP280;64255;49.892;17.884;2022-11-03T02:11:35;99480.03;;;4.77
75658;BMP280;64255;49.892;17.884;2022-11-03T02:14:03;99474.41;;;4.70
75658;BMP280;64255;49.892;17.884;2022-11-03T02:16:32;99489.75;;;4.76
75658;BMP280;64255;49.892;17.884;2022-11-03T02:19:01;99493.97;;;4.86
75658;BMP280;64255;49.892;17.884;2022-11-03T02:22:02;99506.66;;;4.84
75658;BMP280;64255;49.892;17.884;2022-11-03T02:24:51;99494.63;;;5.01
75658;BMP280;64255;49.892;17.884;2022-11-03T02:27:19;99492.63;;;4.98
75658;BMP280;64255;49.892;17.884;2022-11-03T02:29:48;99501.88;;;4.95
75658;BMP280;64255;49.892;17.884;2022-11-03T02:32:24;99502.31;;;4.79
75658;BMP280;64255;49.892;17.884;2022-11-03T02:37:54;99500.16;;;4.82
75658;BMP280;64255;49.892;17.884;2022-11-03T02:40:41;99474.88;;;4.72
75658;BMP280;64255;49.892;17.884;2022-11-03T02:43:11;99498.25;;;4.73
75658;BMP280;64255;49.892;17.884;2022-11-03T02:45:43;99470.38;;;4.63
75658;BMP280;64255;49.892;17.884;2022-11-03T02:48:15;99485.09;;;4.73
75658;BMP280;64255;49.892;17.884;2022-11-03T02:50:46;99479.69;;;4.70
75658;BMP280;64255;49.892;17.884;2022-11-03T02:53:14;99475.78;;;4.67
75658;BMP280;64255;49.892;17.884;2022-11-03T03:01:35;99477.19;;;4.64
75658;BMP280;64255;49.892;17.884;2022-11-03T03:04:07;99478.59;;;4.71
75658;BMP280;64255;49.892;17.884;2022-11-03T03:06:46;99487.25;;;4.62
75658;BMP280;64255;49.892;17.884;2022-11-03T03:09:27;99484.97;;;4.78
75658;BMP280;64255;49.892;17.884;2022-11-03T03:11:58;99467.13;;;4.67
75658;BMP280;64255;49.892;17.884;2022-11-03T03:14:46;99482.78;;;4.72
75658;BMP280;64255;49.892;17.884;2022-11-03T03:17:49;99487.38;;;4.66
75658;BMP280;64255;49.892;17.884;2022-11-03T03:20:28;99487.72;;;4.64
75658;BMP280;64255;49.892;17.884;2022-11-03T03:23:20;99494.94;;;4.59
75658;BMP280;64255;49.892;17.884;2022-11-03T03:25:59;99482.72;;;4.54
75658;BMP280;64255;49.892;17.884;2022-11-03T03:28:46;99496.06;;;4.67
75658;BMP280;64255;49.892;17.884;2022-11-03T03:31:18;99488.59;;;4.51
75658;BMP280;64255;49.892;17.884;2022-11-03T03:33:48;99491.25;;;4.60
75658;BMP280;64255;49.892;17.884;2022-11-03T03:36:18;99486.72;;;4.52
75658;BMP280;64255;49.892;17.884;2022-11-03T03:38:52;99471.78;;;4.29
75658;BMP280;64255;49.892;17.884;2022-11-03T03:41:24;99476.00;;;4.39
75658;BMP280;64255;49.892;17.884;2022-11-03T03:44:04;99458.31;;;4.31
75658;BMP280;64255;49.892;17.884;2022-11-03T03:46:40;99469.09;;;4.52
75658;BMP280;64255;49.892;17.884;2022-11-03T03:49:09;99478.34;;;4.41
75658;BMP280;64255;49.892;17.884;2022-11-03T03:51:37;99461.59;;;4.36
75658;BMP280;64255;49.892;17.884;2022-11-03T03:54:04;99466.09;;;4.36
75658;BMP280;64255;49.892;17.884;2022-11-03T03:56:57;99477.72;;;4.44
75658;BMP280;64255;49.892;17.884;2022-11-03T03:59:24;99476.13;;;4.34
75658;BMP280;64255;49.892;17.884;2022-11-03T04:01:51;99465.56;;;4.25
75658;BMP280;64255;49.892;17.884;2022-11-03T04:04:18;99471.91;;;4.24
75658;BMP280;64255;49.892;17.884;2022-11-03T04:06:45;99450.34;;;4.13
75658;BMP280;64255;49.892;17.884;2022-11-03T04:09:13;99461.75;;;4.31
75658;BMP280;64255;49.892;17.884;2022-11-03T04:11:40;99450.47;;;4.08
75658;BMP280;64255;49.892;17.884;2022-11-03T04:14:08;99461.19;;;4.12
75658;BMP280;64255;49.892;17.884;2022-11-03T04:16:35;99464.53;;;4.03
75658;BMP280;64255;49.892;17.884;2022-11-03T04:19:03;99459.84;;;4.23
75658;BMP280;64255;49.892;17.884;2022-11-03T04:21:30;99472.53;;;4.21
75658;BMP280;64255;49.892;17.884;2022-11-03T04:23:58;99453.28;;;4.12
75658;BMP280;64255;49.892;17.884;2022-11-03T04:26:27;99454.75;;;4.04
75658;BMP280;64255;49.892;17.884;2022-11-03T04:28:55;99461.13;;;4.03
75658;BMP280;64255;49.892;17.884;2022-11-03T04:31:24;99452.41;;;3.71
75658;BMP280;64255;49.892;17.884;2022-11-03T04:33:52;99455.09;;;3.79
75658;BMP280;64255;49.892;17.884;2022-11-03T04:36:24;99441.25;;;3.65
75658;BMP280;64255;49.892;17.884;2022-11-03T04:38:52;99438.69;;;3.51
75658;BMP280;64255;49.892;17.884;2022-11-03T04:41:30;99458.19;;;3.59
75658;BMP280;64255;49.892;17.884;2022-11-03T04:43:58;99459.44;;;3.61
75658;BMP280;64255;49.892;17.884;2022-11-03T04:46:28;99452.53;;;3.65
75658;BMP280;64255;49.892;17.884;2022-11-03T04:48:59;99449.22;;;3.60
75658;BMP280;64255;49.892;17.884;2022-11-03T04:51:30;99455.56;;;3.59
75658;BMP280;64255;49.892;17.884;2022-11-03T04:54:05;99451.31;;;3.49
75658;BMP280;64255;49.892;17.884;2022-11-03T04:56:40;99453.00;;;3.45
75658;BMP280;64255;49.892;17.884;2022-11-03T04:59:12;99439.56;;;3.46
75658;BMP280;64255;49.892;17.884;2022-11-03T05:01:41;99446.88;;;3.35
75658;BMP280;64255;49.892;17.884;2022-11-03T05:04:15;99440.34;;;3.47
75658;BMP280;64255;49.892;17.884;2022-11-03T05:06:52;99435.69;;;3.44
75658;BMP280;64255;49.892;17.884;2022-11-03T05:09:26;99432.38;;;3.38
75658;BMP280;64255;49.892;17.884;2022-11-03T05:11:55;99439.56;;;3.46
75658;BMP280;64255;49.892;17.884;2022-11-03T05:14:26;99449.81;;;3.20
75658;BMP280;64255;49.892;17.884;2022-11-03T05:16:55;99440.53;;;3.14
75658;BMP280;64255;49.892;17.884;2022-11-03T05:19:59;99437.78;;;3.05
75658;BMP280;64255;49.892;17.884;2022-11-03T05:22:34;99437.50;;;3.06
75658;BMP280;64255;49.892;17.884;2022-11-03T05:25:24;99437.53;;;2.92
75658;BMP280;64255;49.892;17.884;2022-11-03T05:27:54;99416.91;;;3.14
75658;BMP280;64255;49.892;17.884;2022-11-03T05:30:21;99436.16;;;3.46
75658;BMP280;64255;49.892;17.884;2022-11-03T05:32:49;99426.06;;;3.39
75658;BMP280;64255;49.892;17.884;2022-11-03T05:35:21;99432.19;;;3.34
75658;BMP280;64255;49.892;17.884;2022-11-03T05:37:50;99423.06;;;3.32
75658;BMP280;64255;49.892;17.884;2022-11-03T05:40:24;99426.88;;;3.26
75658;BMP280;64255;49.892;17.884;2022-11-03T05:42:59;99425.03;;;3.26
75658;BMP280;64255;49.892;17.884;2022-11-03T05:45:33;99427.78;;;3.07
75658;BMP280;64255;49.892;17.884;2022-11-03T05:48:10;99428.50;;;2.99
75658;BMP280;64255;49.892;17.884;2022-11-03T05:50:41;99431.97;;;3.22
75658;BMP280;64255;49.892;17.884;2022-11-03T05:53:29;99419.06;;;3.34
75658;BMP280;64255;49.892;17.884;2022-11-03T05:56:00;99413.00;;;3.25
75658;BMP280;64255;49.892;17.884;2022-11-03T05:58:38;99416.69;;;3.24
75658;BMP280;64255;49.892;17.884;2022-11-03T06:01:30;99423.91;;;3.04
75658;BMP280;64255;49.892;17.884;2022-11-03T06:04:11;99421.50;;;2.94
75658;BMP280;64255;49.892;17.884;2022-11-03T06:06:40;99418.19;;;2.88
75658;BMP280;64255;49.892;17.884;2022-11-03T06:09:21;99417.66;;;3.28
75658;BMP280;64255;49.892;17.884;2022-11-03T06:11:53;99408.34;;;3.68
75658;BMP280;64255;49.892;17.884;2022-11-03T06:14:25;99393.19;;;3.64
75658;BMP280;64255;49.892;17.884;2022-11-03T06:17:04;99411.47;;;3.10
75658;BMP280;64255;49.892;17.884;2022-11-03T06:19:41;99406.53;;;2.80
75658;BMP280;64255;49.892;17.884;2022-11-03T06:22:28;99412.47;;;3.00
75658;BMP280;64255;49.892;17.884;2022-11-03T06:25:18;99411.81;;;3.77
75658;BMP280;64255;49.892;17.884;2022-11-03T06:27:48;99405.25;;;4.20
75658;BMP280;64255;49.892;17.884;2022-11-03T06:30:31;99423.31;;;4.53
75658;BMP280;64255;49.892;17.884;2022-11-03T06:33:06;99420.88;;;4.74
75658;BMP280;64255;49.892;17.884;2022-11-03T06:35:36;99424.34;;;4.03
75658;BMP280;64255;49.892;17.884;2022-11-03T06:38:15;99425.44;;;4.42
75658;BMP280;64255;49.892;17.884;2022-11-03T06:40:44;99414.03;;;4.56
75658;BMP280;64255;49.892;17.884;2022-11-03T06:43:29;99421.19;;;4.64
75658;BMP280;64255;49.892;17.884;2022-11-03T06:45:59;99420.63;;;5.46
75658;BMP280;64255;49.892;17.884;2022-11-03T06:48:29;99421.03;;;5.75
75658;BMP280;64255;49.892;17.884;2022-11-03T06:51:00;99419.88;;;6.02
75658;BMP280;64255;49.892;17.884;2022-11-03T06:53:31;99414.22;;;6.21
75658;BMP280;64255;49.892;17.884;2022-11-03T06:55:59;99405.53;;;6.21
75658;BMP280;64255;49.892;17.884;2022-11-03T06:58:34;99413.63;;;5.59
75658;BMP280;64255;49.892;17.884;2022-11-03T07:01:24;99404.97;;;5.50
75658;BMP280;64255;49.892;17.884;2022-11-03T07:04:02;99394.78;;;5.31
75658;BMP280;64255;49.892;17.884;2022-11-03T07:06:36;99409.78;;;6.13
75658;BMP280;64255;49.892;17.884;2022-11-03T07:09:06;99405.47;;;6.00
75658;BMP280;64255;49.892;17.884;2022-11-03T07:11:52;99394.13;;;6.08
75658;BMP280;64255;49.892;17.884;2022-11-03T07:14:31;99401.94;;;7.53
75658;BMP280;64255;49.892;17.884;2022-11-03T07:17:03;99383.38;;;7.74
75658;BMP280;64255;49.892;17.884;2022-11-03T07:19:39;99386.16;;;7.32
75658;BMP280;64255;49.892;17.884;2022-11-03T07:22:21;99394.50;;;6.79
75658;BMP280;64255;49.892;17.884;2022-11-03T07:24:54;99385.25;;;6.94
75658;BMP280;64255;49.892;17.884;2022-11-03T07:27:28;99381.38;;;7.25
75658;BMP280;64255;49.892;17.884;2022-11-03T07:30:04;99374.84;;;9.45
75658;BMP280;64255;49.892;17.884;2022-11-03T07:32:35;99370.22;;;7.41
75658;BMP280;64255;49.892;17.884;2022-11-03T07:35:21;99366.56;;;7.33
75658;BMP280;64255;49.892;17.884;2022-11-03T07:37:51;99360.56;;;7.57
75658;BMP280;64255;49.892;17.884;2022-11-03T07:40:24;99356.59;;;7.76
75658;BMP280;64255;49.892;17.884;2022-11-03T07:42:58;99369.22;;;10.14
75658;BMP280;64255;49.892;17.884;2022-11-03T07:45:51;99353.97;;;8.54
75658;BMP280;64255;49.892;17.884;2022-11-03T07:48:57;99354.16;;;8.20
75658;BMP280;64255;49.892;17.884;2022-11-03T07:51:32;99339.69;;;8.43
75658;BMP280;64255;49.892;17.884;2022-11-03T07:54:22;99367.09;;;10.98
75658;BMP280;64255;49.892;17.884;2022-11-03T07:57:25;99347.91;;;9.42
75658;BMP280;64255;49.892;17.884;2022-11-03T08:00:19;99332.13;;;9.30
75658;BMP280;64255;49.892;17.884;2022-11-03T08:02:58;99335.44;;;9.59
75658;BMP280;64255;49.892;17.884;2022-11-03T08:05:26;99330.53;;;9.77
75658;BMP280;64255;49.892;17.884;2022-11-03T08:07:53;99330.22;;;9.98
75658;BMP280;64255;49.892;17.884;2022-11-03T08:10:21;99320.63;;;9.74
75658;BMP280;64255;49.892;17.884;2022-11-03T08:12:48;99316.47;;;10.48
75658;BMP280;64255;49.892;17.884;2022-11-03T08:15:15;99321.00;;;10.48
75658;BMP280;64255;49.892;17.884;2022-11-03T08:17:42;99307.44;;;10.96
75658;BMP280;64255;49.892;17.884;2022-11-03T08:20:10;99304.88;;;11.26
75658;BMP280;64255;49.892;17.884;2022-11-03T08:22:36;99306.91;;;11.94
75658;BMP280;64255;49.892;17.884;2022-11-03T08:25:04;99332.91;;;16.47
75658;BMP280;64255;49.892;17.884;2022-11-03T08:27:31;99343.75;;;18.64
75658;BMP280;64255;49.892;17.884;2022-11-03T08:29:59;99330.78;;;20.13
75658;BMP280;64255;49.892;17.884;2022-11-03T08:32:25;99349.78;;;19.72
75658;BMP280;64255;49.892;17.884;2022-11-03T08:34:53;99337.28;;;23.94
75658;BMP280;64255;49.892;17.884;2022-11-03T08:37:19;99337.78;;;24.91
75658;BMP280;64255;49.892;17.884;2022-11-03T08:39:46;99325.22;;;23.85
75658;BMP280;64255;49.892;17.884;2022-11-03T08:42:13;99317.75;;;23.67
75658;BMP280;64255;49.892;17.884;2022-11-03T08:44:40;99274.41;;;18.75
75658;BMP280;64255;49.892;17.884;2022-11-03T08:47:06;99269.69;;;15.93
75658;BMP280;64255;49.892;17.884;2022-11-03T08:49:34;99274.69;;;14.62
75658;BMP280;64255;49.892;17.884;2022-11-03T08:52:01;99271.19;;;14.11
75658;BMP280;64255;49.892;17.884;2022-11-03T08:54:28;99262.28;;;13.67
75658;BMP280;64255;49.892;17.884;2022-11-03T08:56:55;99265.63;;;13.53
75658;BMP280;64255;49.892;17.884;2022-11-03T08:59:22;99251.84;;;13.33
75658;BMP280;64255;49.892;17.884;2022-11-03T09:01:49;99250.06;;;13.66
75658;BMP280;64255;49.892;17.884;2022-11-03T09:04:16;99233.34;;;13.80
75658;BMP280;64255;49.892;17.884;2022-11-03T09:06:43;99252.69;;;13.52
75658;BMP280;64255;49.892;17.884;2022-11-03T09:09:10;99232.06;;;13.41
75658;BMP280;64255;49.892;17.884;2022-11-03T09:11:36;99253.16;;;13.79
75658;BMP280;64255;49.892;17.884;2022-11-03T09:14:03;99248.34;;;14.50
75658;BMP280;64255;49.892;17.884;2022-11-03T09:16:30;99234.22;;;14.24
75658;BMP280;64255;49.892;17.884;2022-11-03T09:18:57;99233.81;;;14.33
75658;BMP280;64255;49.892;17.884;2022-11-03T09:21:24;99236.88;;;14.42
75658;BMP280;64255;49.892;17.884;2022-11-03T09:23:52;99245.59;;;15.97
75658;BMP280;64255;49.892;17.884;2022-11-03T09:26:19;99269.22;;;18.41
75658;BMP280;64255;49.892;17.884;2022-11-03T09:28:46;99264.63;;;21.39
75658;BMP280;64255;49.892;17.884;2022-11-03T09:31:13;99239.78;;;21.18
75658;BMP280;64255;49.892;17.884;2022-11-03T09:33:40;99217.75;;;17.95
75658;BMP280;64255;49.892;17.884;2022-11-03T09:36:07;99208.31;;;15.64
75658;BMP280;64255;49.892;17.884;2022-11-03T09:38:34;99201.31;;;15.00
75658;BMP280;64255;49.892;17.884;2022-11-03T09:41:03;99192.22;;;14.25
75658;BMP280;64255;49.892;17.884;2022-11-03T09:43:32;99181.50;;;13.78
75658;BMP280;64255;49.892;17.884;2022-11-03T09:45:59;99178.84;;;13.96
75658;BMP280;64255;49.892;17.884;2022-11-03T09:48:27;99176.53;;;13.72
75658;BMP280;64255;49.892;17.884;2022-11-03T09:50:55;99173.44;;;13.59
75658;BMP280;64255;49.892;17.884;2022-11-03T09:53:23;99174.97;;;13.64
75658;BMP280;64255;49.892;17.884;2022-11-03T09:55:50;99168.50;;;13.69
75658;BMP280;64255;49.892;17.884;2022-11-03T09:58:17;99165.50;;;13.92
75658;BMP280;64255;49.892;17.884;2022-11-03T10:00:45;99142.25;;;13.93
75658;BMP280;64255;49.892;17.884;2022-11-03T10:03:15;99142.66;;;14.06
75658;BMP280;64255;49.892;17.884;2022-11-03T10:05:44;99151.00;;;14.47
75658;BMP280;64255;49.892;17.884;2022-11-03T10:08:28;99143.22;;;15.11
75658;BMP280;64255;49.892;17.884;2022-11-03T10:10:57;99133.19;;;15.26
75658;BMP280;64255;49.892;17.884;2022-11-03T10:13:28;99135.88;;;15.19
75658;BMP280;64255;49.892;17.884;2022-11-03T10:15:59;99134.09;;;15.68
75658;BMP280;64255;49.892;17.884;2022-11-03T10:18:28;99123.13;;;15.48
75658;BMP280;64255;49.892;17.884;2022-11-03T10:21:02;99113.16;;;15.52
75658;BMP280;64255;49.892;17.884;2022-11-03T10:23:29;99116.56;;;15.60
75658;BMP280;64255;49.892;17.884;2022-11-03T10:26:15;99112.09;;;15.95
75658;BMP280;64255;49.892;17.884;2022-11-03T10:29:01;99112.81;;;15.99
75658;BMP280;64255;49.892;17.884;2022-11-03T10:31:39;99109.22;;;16.17
75658;BMP280;64255;49.892;17.884;2022-11-03T10:34:34;99104.59;;;16.17
75658;BMP280;64255;49.892;17.884;2022-11-03T10:37:23;99098.88;;;15.74
75658;BMP280;64255;49.892;17.884;2022-11-03T10:39:56;99083.47;;;15.85
75658;BMP280;64255;49.892;17.884;2022-11-03T10:42:27;99081.03;;;15.56
75658;BMP280;64255;49.892;17.884;2022-11-03T10:47:36;99069.88;;;15.65
75658;BMP280;64255;49.892;17.884;2022-11-03T10:50:25;99062.41;;;15.38
75658;BMP280;64255;49.892;17.884;2022-11-03T10:52:54;99053.72;;;15.76
75658;BMP280;64255;49.892;17.884;2022-11-03T10:55:25;99053.88;;;15.57
75658;BMP280;64255;49.892;17.884;2022-11-03T10:57:53;99054.28;;;15.49
75658;BMP280;64255;49.892;17.884;2022-11-03T11:00:20;99042.84;;;15.48
75658;BMP280;64255;49.892;17.884;2022-11-03T11:02:48;99037.78;;;16.41
75658;BMP280;64255;49.892;17.884;2022-11-03T11:05:23;99032.50;;;16.65
75658;BMP280;64255;49.892;17.884;2022-11-03T11:07:52;99024.63;;;16.51
75658;BMP280;64255;49.892;17.884;2022-11-03T11:10:27;99032.13;;;16.63
75658;BMP280;64255;49.892;17.884;2022-11-03T11:16:00;99028.09;;;16.51
75658;BMP280;64255;49.892;17.884;2022-11-03T11:23:45;99004.31;;;16.53
75658;BMP280;64255;49.892;17.884;2022-11-03T11:26:33;98995.47;;;16.56
75658;BMP280;64255;49.892;17.884;2022-11-03T11:31:39;98996.03;;;16.99
75658;BMP280;64255;49.892;17.884;2022-11-03T11:42:17;98988.59;;;16.24
75658;BMP280;64255;49.892;17.884;2022-11-03T11:44:53;98984.66;;;15.98
75658;BMP280;64255;49.892;17.884;2022-11-03T11:50:25;98980.63;;;15.82
75658;BMP280;64255;49.892;17.884;2022-11-03T11:53:02;98968.78;;;15.80
75658;BMP280;64255;49.892;17.884;2022-11-03T11:55:35;98970.63;;;15.86
75658;BMP280;64255;49.892;17.884;2022-11-03T11:58:20;98962.44;;;16.01
75658;BMP280;64255;49.892;17.884;2022-11-03T12:03:44;98947.66;;;15.89
75658;BMP280;64255;49.892;17.884;2022-11-03T12:06:13;98941.91;;;15.91
75658;BMP280;64255;49.892;17.884;2022-11-03T12:08:42;98938.53;;;15.83
75658;BMP280;64255;49.892;17.884;2022-11-03T12:11:11;98930.53;;;15.79
75658;BMP280;64255;49.892;17.884;2022-11-03T12:13:43;98933.94;;;15.83
75658;BMP280;64255;49.892;17.884;2022-11-03T12:16:35;98933.22;;;15.79
75658;BMP280;64255;49.892;17.884;2022-11-03T12:19:41;98935.41;;;15.92
75658;BMP280;64255;49.892;17.884;2022-11-03T12:24:56;98930.75;;;15.96
75658;BMP280;64255;49.892;17.884;2022-11-03T12:29:52;98908.94;;;15.97
75658;BMP280;64255;49.892;17.884;2022-11-03T12:32:21;98898.13;;;16.05
75658;BMP280;64255;49.892;17.884;2022-11-03T12:34:47;98898.91;;;16.01
75658;BMP280;64255;49.892;17.884;2022-11-03T12:37:15;98872.31;;;16.18
75658;BMP280;64255;49.892;17.884;2022-11-03T12:39:42;98876.59;;;16.43
75658;BMP280;64255;49.892;17.884;2022-11-03T12:42:09;98871.53;;;16.72
75658;BMP280;64255;49.892;17.884;2022-11-03T12:44:36;98867.28;;;16.99
75658;BMP280;64255;49.892;17.884;2022-11-03T12:47:03;98866.34;;;16.85
75658;BMP280;64255;49.892;17.884;2022-11-03T12:49:30;98857.72;;;17.18
75658;BMP280;64255;49.892;17.884;2022-11-03T12:51:57;98850.41;;;17.22
75658;BMP280;64255;49.892;17.884;2022-11-03T12:54:24;98866.06;;;17.23
75658;BMP280;64255;49.892;17.884;2022-11-03T12:56:52;98857.34;;;17.19
75658;BMP280;64255;49.892;17.884;2022-11-03T12:59:19;98838.00;;;17.28
75658;BMP280;64255;49.892;17.884;2022-11-03T13:01:46;98833.59;;;17.18
75658;BMP280;64255;49.892;17.884;2022-11-03T13:04:13;98844.00;;;17.16
75658;BMP280;64255;49.892;17.884;2022-11-03T13:06:41;98844.22;;;17.25
75658;BMP280;64255;49.892;17.884;2022-11-03T13:09:07;98831.47;;;17.09
75658;BMP280;64255;49.892;17.884;2022-11-03T13:11:35;98820.25;;;16.94
75658;BMP280;64255;49.892;17.884;2022-11-03T13:14:02;98831.72;;;16.94
75658;BMP280;64255;49.892;17.884;2022-11-03T13:16:30;98824.41;;;16.75
75658;BMP280;64255;49.892;17.884;2022-11-03T13:18:57;98821.34;;;16.73
75658;BMP280;64255;49.892;17.884;2022-11-03T13:21:24;98825.38;;;16.85
75658;BMP280;64255;49.892;17.884;2022-11-03T13:23:51;98822.75;;;16.81
75658;BMP280;64255;49.892;17.884;2022-11-03T13:26:18;98818.31;;;16.47
75658;BMP280;64255;49.892;17.884;2022-11-03T13:28:45;98813.81;;;16.40
75658;BMP280;64255;49.892;17.884;2022-11-03T13:31:12;98808.69;;;16.49
75658;BMP280;64255;49.892;17.884;2022-11-03T13:33:39;98808.97;;;16.59
75658;BMP280;64255;49.892;17.884;2022-11-03T13:36:07;98805.88;;;16.33
75658;BMP280;64255;49.892;17.884;2022-11-03T13:38:34;98810.59;;;16.49
75658;BMP280;64255;49.892;17.884;2022-11-03T13:41:01;98808.22;;;16.31
75658;BMP280;64255;49.892;17.884;2022-11-03T13:43:28;98806.13;;;16.18
75658;BMP280;64255;49.892;17.884;2022-11-03T13:45:55;98804.97;;;16.20
75658;BMP280;64255;49.892;17.884;2022-11-03T13:48:22;98797.88;;;16.06
75658;BMP280;64255;49.892;17.884;2022-11-03T13:50:49;98797.03;;;15.81
75658;BMP280;64255;49.892;17.884;2022-11-03T13:53:16;98786.38;;;15.78
75658;BMP280;64255;49.892;17.884;2022-11-03T13:55:43;98790.13;;;15.84
75658;BMP280;64255;49.892;17.884;2022-11-03T13:58:10;98784.84;;;15.77
75658;BMP280;64255;49.892;17.884;2022-11-03T14:00:37;98770.72;;;15.76
75658;BMP280;64255;49.892;17.884;2022-11-03T14:03:04;98781.03;;;15.47
75658;BMP280;64255;49.892;17.884;2022-11-03T14:05:31;98772.56;;;15.17
75658;BMP280;64255;49.892;17.884;2022-11-03T14:07:58;98772.94;;;15.16
75658;BMP280;64255;49.892;17.884;2022-11-03T14:10:25;98780.72;;;15.03
75658;BMP280;64255;49.892;17.884;2022-11-03T14:12:52;98772.13;;;14.80
75658;BMP280;64255;49.892;17.884;2022-11-03T14:15:19;98787.47;;;14.73
75658;BMP280;64255;49.892;17.884;2022-11-03T14:17:47;98772.38;;;14.48
75658;BMP280;64255;49.892;17.884;2022-11-03T14:20:14;98770.53;;;14.45
75658;BMP280;64255;49.892;17.884;2022-11-03T14:22:41;98767.88;;;14.41
75658;BMP280;64255;49.892;17.884;2022-11-03T14:25:08;98771.38;;;14.31
75658;BMP280;64255;49.892;17.884;2022-11-03T14:27:35;98778.63;;;14.27
75658;BMP280;64255;49.892;17.884;2022-11-03T14:30:04;98779.75;;;14.33
75658;BMP280;64255;49.892;17.884;2022-11-03T14:32:31;98759.06;;;14.41
75658;BMP280;64255;49.892;17.884;2022-11-03T14:34:58;98760.56;;;14.49
75658;BMP280;64255;49.892;17.884;2022-11-03T14:37:25;98745.78;;;14.33
75658;BMP280;64255;49.892;17.884;2022-11-03T14:39:52;98749.53;;;14.40
75658;BMP280;64255;49.892;17.884;2022-11-03T14:42:20;98748.38;;;14.44
75658;BMP280;64255;49.892;17.884;2022-11-03T14:44:47;98728.44;;;14.03
75658;BMP280;64255;49.892;17.884;2022-11-03T14:47:17;98735.72;;;13.96
75658;BMP280;64255;49.892;17.884;2022-11-03T14:49:45;98724.47;;;13.55
75658;BMP280;64255;49.892;17.884;2022-11-03T14:52:13;98724.88;;;13.50
75658;BMP280;64255;49.892;17.884;2022-11-03T14:54:41;98732.53;;;13.37
75658;BMP280;64255;49.892;17.884;2022-11-03T14:57:08;98727.25;;;13.23
75658;BMP280;64255;49.892;17.884;2022-11-03T14:59:36;98712.38;;;13.25
75658;BMP280;64255;49.892;17.884;2022-11-03T15:02:04;98726.47;;;13.37
75658;BMP280;64255;49.892;17.884;2022-11-03T15:04:30;98712.81;;;13.13
75658;BMP280;64255;49.892;17.884;2022-11-03T15:06:57;98712.03;;;13.20
75658;BMP280;64255;49.892;17.884;2022-11-03T15:09:24;98721.50;;;13.46
75658;BMP280;64255;49.892;17.884;2022-11-03T15:11:51;98710.84;;;13.32
75658;BMP280;64255;49.892;17.884;2022-11-03T15:14:18;98716.22;;;13.28
75658;BMP280;64255;49.892;17.884;2022-11-03T15:16:45;98699.13;;;13.07